CYAY

Details ICAO CYAY (YAY)
Name ST ANTHONY
Region Canada
Timezone America/St_Johns (UTC-3.5)
Plans Departing 9
Arriving 8
Stats Elevation 108 ft / 33 m (AMSL)
Location 51.391900° -56.083147°
Runways 1
Magnetic Variation 19.925° W
Sunrise 2017-12-10 11:39:55 UTC / 2017-12-10 08:09:55 Local
Sunset 2017-12-10 19:37:25 UTC / 2017-12-10 16:07:25 Local
Advertisement - Login to hide

Runways

ID Width Length Bearing (true) Bearing (mag) Surface Threshold Offset Overrun Length
10 100 ft / 30 m 3,992 ft / 1,217 m 79.79° 99.71° Asphalt 0 ft / 0 m 0 ft / 0 m
28 100 ft / 30 m 3,992 ft / 1,217 m 259.80° 279.72° Asphalt 0 ft / 0 m 0 ft / 0 m

Map

Weather


0- 5 10 15 20 25 30 35+ Temperature / ° C

Clouds and Precipitation
Forecast for 2017-12-11 00:00 UTC. Updated an hour ago

Ground ~20,000 ft ~40,000 ft Winds

METAR

CYAY 110018Z AUTO 23037G51KT 9SM BKN019 01/M01 A2897 RMK ICG PRESRR SLP813

TAF

TAF AMD TAF AMD CYAY 102223Z 1022/1108 20020G30KT P6SM SCT007 OVC015 TEMPO 1022/1024 21/2SM -RASN BR OVC007 BECMG 1022/1024 22030G45KT FM110000 22030G45KT P6SM BKN015 TEMPO 1100/1108 BKN025 BECMG 1100/1102 24020G30KT RMK FCST BASED ON AUTO OBS. NXT FCST BY 110200Z

Frequencies

Recorded 118.65 MHz AWOS1
Unicom 122.30 MHz CTAF
Warning: Do not use this data for real-world aviation or navigation. No guarantee of current accuracy is given.